Time;durP1;ratioP1;P1;durP2;ratioP2;P2;SDS_P1;SDS_P2;PMS_P1;PMS_P2;Temp;Humidity;BMP_temperature;BMP_pressure;BME280_temperature;BME280_humidity;BME280_pressure;Samples;Min_cycle;Max_cycle;Signal;HPM_P1;HPM_P2
2023/10/23 00:01:41;;;;;;;0.10;0.10;;;;;;;2.61;100.00;99053.03;5041792;28;20470;-70
2023/10/23 00:04:07;;;;;;;0.10;0.10;;;;;;;2.62;100.00;99056.56;5040528;28;20098;-70
2023/10/23 00:06:35;;;;;;;0.10;0.10;;;;;;;2.62;100.00;99065.47;5040531;28;20094;-70
2023/10/23 00:09:02;;;;;;;0.10;0.10;;;;;;;2.67;100.00;99064.75;5039460;28;20060;-70
2023/10/23 00:11:29;;;;;;;0.10;0.10;;;;;;;2.78;100.00;99068.47;5042971;28;20051;-70
2023/10/23 00:13:56;;;;;;;0.10;0.10;;;;;;;2.89;100.00;99069.47;5039425;28;20076;-70
2023/10/23 00:16:22;;;;;;;0.10;0.10;;;;;;;2.83;100.00;99064.00;5041153;28;20049;-71
2023/10/23 00:18:48;;;;;;;0.10;0.10;;;;;;;2.82;100.00;99064.25;5042171;28;20061;-70
2023/10/23 00:21:16;;;;;;;0.10;0.10;;;;;;;2.86;100.00;99060.00;5040893;28;20136;-70
2023/10/23 00:23:44;;;;;;;0.08;0.08;;;;;;;2.92;100.00;99050.09;5040832;28;20051;-71
2023/10/23 00:26:10;;;;;;;0.10;0.10;;;;;;;2.94;100.00;99039.88;5039432;28;20045;-70
2023/10/23 00:28:39;;;;;;;0.38;0.10;;;;;;;2.95;100.00;99028.00;5039368;28;20077;-71
2023/10/23 00:31:05;;;;;;;0.10;0.10;;;;;;;3.01;99.94;99010.81;5041377;28;20144;-71
2023/10/23 00:33:31;;;;;;;0.10;0.10;;;;;;;2.96;99.85;98984.53;5031484;28;20095;-66
2023/10/23 00:35:57;;;;;;;0.10;0.10;;;;;;;3.10;99.63;98986.91;5041896;28;20474;-65
2023/10/23 00:38:23;;;;;;;0.10;0.10;;;;;;;3.19;99.41;98974.66;5038282;28;20041;-65
2023/10/23 00:40:51;;;;;;;0.00;0.00;;;;;;;3.20;99.11;98962.78;5023583;28;20131;-66
2023/10/23 00:43:18;;;;;;;0.10;0.10;;;;;;;3.20;98.58;98935.75;5024984;28;20512;-65
2023/10/23 00:45:50;;;;;;;0.10;0.10;;;;;;;3.11;98.68;98915.63;5035207;28;20567;-66
2023/10/23 00:48:19;;;;;;;0.10;0.10;;;;;;;3.09;98.62;98899.69;5044058;28;20056;-65
2023/10/23 00:50:45;;;;;;;0.10;0.10;;;;;;;3.19;98.69;98909.81;5043271;28;20472;-65
2023/10/23 00:53:12;;;;;;;0.10;0.10;;;;;;;3.22;98.76;98900.41;5042795;28;20063;-65
2023/10/23 00:55:39;;;;;;;0.10;0.10;;;;;;;3.25;99.11;98900.69;5042941;28;20522;-66
2023/10/23 00:58:07;;;;;;;0.00;0.00;;;;;;;3.29;98.72;98895.63;5045224;28;20056;-70
2023/10/23 01:00:33;;;;;;;;;;;;;;;3.31;98.65;98939.44;5043825;28;20052;-70
2023/10/23 01:03:00;;;;;;;0.10;0.10;;;;;;;3.26;97.84;98969.88;5041382;28;19925;-70
2023/10/23 01:05:26;;;;;;;0.10;0.10;;;;;;;3.16;97.27;98985.13;5037525;28;20057;-70
2023/10/23 01:07:52;;;;;;;0.10;0.10;;;;;;;3.10;97.52;98978.81;5042929;28;21061;-70
2023/10/23 01:10:18;;;;;;;0.10;0.10;;;;;;;3.06;97.79;98974.97;5043699;28;20045;-70
2023/10/23 01:12:45;;;;;;;0.10;0.10;;;;;;;3.07;98.16;98957.72;5043404;28;20581;-71
2023/10/23 01:15:12;;;;;;;0.10;0.10;;;;;;;3.05;97.85;98949.03;5044161;28;20056;-69
2023/10/23 01:17:39;;;;;;;0.10;0.10;;;;;;;3.07;97.53;98934.22;5042408;28;20440;-70
2023/10/23 01:20:09;;;;;;;0.00;0.00;;;;;;;3.11;97.64;98929.13;5041709;28;20049;-70
2023/10/23 01:22:35;;;;;;;0.10;0.10;;;;;;;3.17;97.68;98936.25;5031706;28;20060;-70
2023/10/23 01:25:09;;;;;;;0.10;0.10;;;;;;;3.23;97.76;98935.25;5042041;28;20045;-70
2023/10/23 01:27:36;;;;;;;0.05;0.05;;;;;;;3.29;97.97;98935.34;5043052;28;20342;-65
2023/10/23 01:30:02;;;;;;;0.10;0.10;;;;;;;3.31;97.75;98935.91;5041648;28;20115;-65
2023/10/23 01:32:30;;;;;;;0.10;0.10;;;;;;;3.31;97.46;98944.03;5041247;28;20068;-66
2023/10/23 01:34:56;;;;;;;0.10;0.10;;;;;;;3.23;97.46;98919.06;5043481;28;20140;-65
2023/10/23 01:37:23;;;;;;;0.10;0.10;;;;;;;3.25;97.50;98921.53;5042340;28;20096;-65
2023/10/23 01:39:49;;;;;;;0.10;0.10;;;;;;;3.25;97.32;98903.41;5037192;28;20045;-65
2023/10/23 01:42:17;;;;;;;0.10;0.10;;;;;;;3.23;97.45;98899.34;5019936;28;20277;-65
2023/10/23 01:44:44;;;;;;;0.10;0.10;;;;;;;3.28;97.62;98891.28;5023485;28;20111;-64
2023/10/23 01:47:10;;;;;;;0.10;0.10;;;;;;;3.37;97.87;98889.81;5037280;28;20049;-65
2023/10/23 01:49:36;;;;;;;0.10;0.10;;;;;;;3.39;97.40;98884.13;5041786;28;20052;-65
2023/10/23 01:52:03;;;;;;;0.10;0.10;;;;;;;3.38;97.53;98883.34;5040629;28;20045;-65
2023/10/23 01:54:29;;;;;;;0.10;0.10;;;;;;;3.36;97.47;98888.19;5036947;28;20045;-65
2023/10/23 01:56:55;;;;;;;0.10;0.10;;;;;;;3.34;97.37;98876.78;5041891;28;20132;-65
2023/10/23 01:59:23;;;;;;;0.10;0.10;;;;;;;3.32;97.46;98881.63;5040221;28;20041;-66
2023/10/23 02:01:49;;;;;;;0.10;0.10;;;;;;;3.35;97.60;98888.41;5024828;28;20076;-65
2023/10/23 02:04:15;;;;;;;0.10;0.10;;;;;;;3.38;97.87;98887.91;5041852;28;20063;-65
2023/10/23 02:06:41;;;;;;;0.10;0.10;;;;;;;3.31;97.93;98879.97;5046065;28;20053;-65
2023/10/23 02:09:08;;;;;;;0.10;0.10;;;;;;;3.28;98.21;98882.34;5044196;28;20052;-65
2023/10/23 02:11:34;;;;;;;0.10;0.10;;;;;;;3.22;98.36;98878.78;5041488;28;20566;-66
2023/10/23 02:14:01;;;;;;;0.10;0.10;;;;;;;3.16;99.09;98869.78;5043329;28;20041;-65
2023/10/23 02:16:29;;;;;;;0.10;0.10;;;;;;;3.16;99.14;98867.09;5042401;28;20511;-65
2023/10/23 02:18:55;;;;;;;;;;;;;;;3.18;99.37;98872.22;5046338;28;20065;-71
2023/10/23 02:21:21;;;;;;;0.10;0.10;;;;;;;3.24;99.31;98865.84;5058737;28;19924;-70
2023/10/23 02:23:47;;;;;;;0.10;0.10;;;;;;;3.30;98.78;98870.25;5042878;28;20048;-70
2023/10/23 02:26:13;;;;;;;0.10;0.10;;;;;;;3.33;99.01;98860.81;5041902;28;20045;-69
2023/10/23 02:28:39;;;;;;;0.10;0.10;;;;;;;3.36;98.82;98855.75;5041896;28;20600;-70
2023/10/23 02:31:06;;;;;;;0.10;0.10;;;;;;;3.40;98.88;98850.63;5041316;28;20053;-70
2023/10/23 02:33:34;;;;;;;0.10;0.10;;;;;;;3.45;98.72;98844.50;5003441;28;20048;-69
2023/10/23 02:36:00;;;;;;;0.10;0.10;;;;;;;3.46;98.46;98835.31;5056701;28;20049;-70
2023/10/23 02:38:26;;;;;;;0.10;0.10;;;;;;;3.48;98.52;98842.09;5039030;28;20044;-70
2023/10/23 02:40:52;;;;;;;0.10;0.10;;;;;;;3.49;98.31;98837.50;5039639;28;20047;-67
2023/10/23 02:43:19;;;;;;;0.10;0.10;;;;;;;3.53;98.49;98842.16;5041785;28;20326;-66
2023/10/23 02:45:45;;;;;;;0.10;0.10;;;;;;;3.57;98.76;98837.06;5041885;28;20045;-66
2023/10/23 02:48:11;;;;;;;0.10;0.10;;;;;;;3.54;98.94;98830.28;5041303;28;20051;-66
2023/10/23 02:50:39;;;;;;;0.10;0.10;;;;;;;3.52;99.18;98824.31;5041519;28;20131;-66
2023/10/23 02:53:06;;;;;;;0.10;0.10;;;;;;;3.56;99.07;98824.63;5040262;28;20512;-65
2023/10/23 02:55:32;;;;;;;0.10;0.10;;;;;;;3.59;99.06;98818.72;5040651;28;20143;-65
2023/10/23 02:57:58;;;;;;;0.10;0.10;;;;;;;3.62;98.98;98814.69;5027517;28;20056;-66
2023/10/23 03:00:24;;;;;;;0.10;0.10;;;;;;;3.58;98.86;98803.56;5035358;28;20057;-66
2023/10/23 03:02:50;;;;;;;0.10;0.10;;;;;;;3.57;98.51;98804.63;5022903;28;20570;-65
2023/10/23 03:05:16;;;;;;;0.10;0.10;;;;;;;3.59;98.65;98801.66;5033970;28;20075;-65
2023/10/23 03:07:44;;;;;;;0.10;0.10;;;;;;;3.63;98.92;98797.41;5041640;28;20048;-65
2023/10/23 03:10:10;;;;;;;0.10;0.10;;;;;;;3.63;98.68;98789.28;5041868;28;20526;-65
2023/10/23 03:12:36;;;;;;;0.05;0.05;;;;;;;3.65;98.30;98779.84;5042719;28;20053;-65
2023/10/23 03:15:03;;;;;;;0.10;0.10;;;;;;;3.67;98.06;98787.72;5040485;28;20171;-65
2023/10/23 03:17:31;;;;;;;0.10;0.10;;;;;;;3.66;98.04;98775.25;5028379;28;20189;-65
2023/10/23 03:19:58;;;;;;;0.10;0.10;;;;;;;3.63;97.85;98767.66;5042120;28;20270;-65
2023/10/23 03:22:24;;;;;;;0.10;0.10;;;;;;;3.60;97.77;98760.06;5042365;28;20315;-70
2023/10/23 03:24:51;;;;;;;0.10;0.10;;;;;;;3.61;97.65;98750.88;5042346;28;20049;-70
2023/10/23 03:27:17;;;;;;;0.00;0.00;;;;;;;3.58;97.79;98748.66;5042460;28;20539;-70
2023/10/23 03:29:43;;;;;;;0.10;0.10;;;;;;;3.63;97.89;98746.03;5042037;28;20471;-70
2023/10/23 03:32:11;;;;;;;0.10;0.10;;;;;;;3.63;97.99;98735.22;5042116;28;20044;-70
2023/10/23 03:34:38;;;;;;;0.00;0.00;;;;;;;3.67;98.12;98725.53;5039991;28;20056;-70
2023/10/23 03:37:04;;;;;;;0.10;0.10;;;;;;;3.65;98.33;98714.16;5037783;28;20606;-70
2023/10/23 03:39:30;;;;;;;0.10;0.10;;;;;;;3.58;97.98;98716.22;5041661;28;20370;-69
2023/10/23 03:41:58;;;;;;;0.10;0.10;;;;;;;3.50;98.11;98712.09;5025024;28;20048;-69
2023/10/23 03:44:24;;;;;;;0.10;0.10;;;;;;;3.47;98.38;98708.03;5039479;28;20559;-70
2023/10/23 03:46:50;;;;;;;0.10;0.10;;;;;;;3.48;98.73;98716.94;5025683;28;20107;-70
2023/10/23 03:49:16;;;;;;;0.10;0.10;;;;;;;3.49;99.01;98716.72;5039149;28;20055;-70
2023/10/23 03:51:42;;;;;;;0.10;0.10;;;;;;;3.49;99.28;98705.91;5034992;28;20080;-70
2023/10/23 03:54:08;;;;;;;0.10;0.10;;;;;;;3.42;99.75;98713.38;5020984;28;20080;-70
2023/10/23 03:56:34;;;;;;;0.10;0.10;;;;;;;3.42;100.00;98707.16;5036848;28;20081;-66
2023/10/23 03:59:02;;;;;;;0.10;0.10;;;;;;;3.45;100.00;98699.38;5040847;28;20053;-66
2023/10/23 04:01:29;;;;;;;0.10;0.10;;;;;;;3.52;100.00;98705.38;5038088;28;20045;-70
2023/10/23 04:03:55;;;;;;;0.10;0.10;;;;;;;3.58;100.00;98708.13;5019401;28;20149;-70
2023/10/23 04:06:21;;;;;;;0.10;0.10;;;;;;;3.52;100.00;98704.56;5030601;28;20147;-70
2023/10/23 04:08:51;;;;;;;0.10;0.10;;;;;;;3.51;100.00;98703.75;5042366;28;20049;-70
2023/10/23 04:11:17;;;;;;;0.10;0.10;;;;;;;3.42;100.00;98685.53;5044174;28;20051;-70
2023/10/23 04:13:43;;;;;;;0.20;0.15;;;;;;;3.52;100.00;98696.47;5045034;28;20136;-66
2023/10/23 04:16:12;;;;;;;0.10;0.10;;;;;;;3.45;100.00;98687.72;5046167;28;20045;-65
2023/10/23 04:18:38;;;;;;;0.10;0.10;;;;;;;3.47;100.00;98672.06;5046192;28;20060;-65
2023/10/23 04:21:05;;;;;;;0.10;0.10;;;;;;;3.51;100.00;98673.19;5044196;28;20037;-70
2023/10/23 04:23:32;;;;;;;0.10;0.10;;;;;;;3.57;100.00;98658.66;5042356;28;20432;-65
2023/10/23 04:25:59;;;;;;;0.10;0.10;;;;;;;3.61;100.00;98653.56;5044261;28;20053;-65
2023/10/23 04:28:25;;;;;;;0.10;0.10;;;;;;;3.66;100.00;98648.19;5043106;28;20412;-66
2023/10/23 04:30:52;;;;;;;0.10;0.10;;;;;;;3.72;100.00;98649.84;5039138;28;20098;-65
2023/10/23 04:33:21;;;;;;;0.10;0.10;;;;;;;3.78;100.00;98648.84;5044853;28;20056;-65
2023/10/23 04:35:49;;;;;;;0.10;0.10;;;;;;;3.81;100.00;98645.63;5028845;28;20041;-65
2023/10/23 04:38:15;;;;;;;0.10;0.10;;;;;;;3.83;99.96;98643.47;5039384;28;20064;-65
2023/10/23 04:40:42;;;;;;;0.10;0.10;;;;;;;3.80;99.81;98645.88;5037384;28;20548;-65
2023/10/23 04:43:08;;;;;;;0.15;0.15;;;;;;;3.78;99.87;98640.72;5035388;28;20052;-65
2023/10/23 04:45:35;;;;;;;0.10;0.10;;;;;;;3.81;99.77;98642.91;5037231;28;20041;-65
2023/10/23 04:48:01;;;;;;;0.15;0.15;;;;;;;3.86;99.85;98642.16;5035808;28;20512;-65
2023/10/23 04:50:30;;;;;;;0.10;0.10;;;;;;;3.86;100.00;98628.63;5036167;28;20033;-67
2023/10/23 04:52:56;;;;;;;0.52;0.40;;;;;;;3.93;100.00;98623.78;5036108;28;20103;-65
2023/10/23 04:55:22;;;;;;;0.10;0.10;;;;;;;3.88;99.96;98622.94;5036650;28;20403;-65
2023/10/23 04:57:51;;;;;;;0.63;0.30;;;;;;;3.91;100.00;98622.44;4686940;28;10000448;-65
2023/10/23 05:00:19;;;;;;;0.20;0.20;;;;;;;3.92;100.00;98616.75;5035505;28;20037;-65
2023/10/23 05:02:45;;;;;;;0.20;0.20;;;;;;;3.94;100.00;98609.19;5030688;28;20040;-65
2023/10/23 05:05:12;;;;;;;0.20;0.20;;;;;;;3.96;100.00;98617.06;5036100;28;20044;-69
2023/10/23 05:07:39;;;;;;;0.10;0.10;;;;;;;3.94;100.00;98611.91;5026792;28;20444;-69
2023/10/23 05:10:07;;;;;;;0.20;0.10;;;;;;;3.98;100.00;98606.78;5030508;28;20492;-70
2023/10/23 05:12:34;;;;;;;;;;;;;;;4.02;100.00;98607.09;5035631;28;20572;-71
2023/10/23 05:15:00;;;;;;;0.55;0.20;;;;;;;4.07;100.00;98596.28;5016736;28;20426;-70
2023/10/23 05:17:27;;;;;;;0.25;0.25;;;;;;;4.07;100.00;98599.00;5039570;28;20056;-70
2023/10/23 05:19:53;;;;;;;0.10;0.10;;;;;;;4.05;99.53;98606.56;5043609;28;20516;-70
2023/10/23 05:22:19;;;;;;;0.25;0.20;;;;;;;4.08;99.92;98597.91;5032611;28;20048;-70
2023/10/23 05:24:48;;;;;;;0.45;0.20;;;;;;;4.05;99.89;98593.84;5030588;28;20045;-69
2023/10/23 05:27:14;;;;;;;0.20;0.20;;;;;;;4.10;100.00;98595.75;5028229;28;20542;-70
2023/10/23 05:29:41;;;;;;;0.52;0.30;;;;;;;4.11;100.00;98587.41;5031473;28;20060;-70
2023/10/23 05:32:07;;;;;;;0.30;0.20;;;;;;;4.14;100.00;98588.78;5021399;28;20118;-70
2023/10/23 05:34:33;;;;;;;0.40;0.32;;;;;;;4.18;99.79;98592.59;5017355;28;20041;-70
2023/10/23 05:37:00;;;;;;;0.10;0.10;;;;;;;4.21;99.89;98583.94;5039463;28;20119;-70
2023/10/23 05:39:26;;;;;;;0.38;0.30;;;;;;;4.30;99.97;98578.03;5024070;28;20160;-71
2023/10/23 05:41:53;;;;;;;0.20;0.20;;;;;;;4.28;99.76;98580.16;5042022;28;20132;-70
2023/10/23 05:44:20;;;;;;;0.22;0.22;;;;;;;4.29;99.69;98582.63;5043871;28;20055;-66
2023/10/23 05:46:47;;;;;;;0.40;0.30;;;;;;;4.29;100.00;98579.09;5039521;28;20102;-66
2023/10/23 05:49:13;;;;;;;0.30;0.30;;;;;;;4.28;100.00;98577.47;5044835;28;20053;-65
2023/10/23 05:51:39;;;;;;;0.50;0.50;;;;;;;4.32;100.00;98573.16;5043440;28;20047;-66
2023/10/23 05:54:06;;;;;;;0.28;0.20;;;;;;;4.32;100.00;98571.25;5041576;28;20049;-65
2023/10/23 05:56:32;;;;;;;0.10;0.10;;;;;;;4.34;100.00;98569.09;5041883;28;20139;-65
2023/10/23 05:59:00;;;;;;;0.10;0.10;;;;;;;4.40;100.00;98570.78;5044744;28;20052;-65
2023/10/23 06:01:26;;;;;;;0.40;0.20;;;;;;;4.46;100.00;98565.38;5045845;28;20103;-65
2023/10/23 06:03:53;;;;;;;0.25;0.25;;;;;;;4.47;99.93;98559.69;5043859;28;20463;-64
2023/10/23 06:06:19;;;;;;;0.33;0.33;;;;;;;4.46;99.86;98568.91;5041243;28;20051;-70
2023/10/23 06:08:45;;;;;;;0.32;0.28;;;;;;;4.47;99.54;98567.81;5040832;28;20475;-70
2023/10/23 06:11:11;;;;;;;0.50;0.30;;;;;;;4.45;99.38;98575.41;5040204;28;20128;-70
2023/10/23 06:13:38;;;;;;;0.50;0.30;;;;;;;4.43;99.30;98566.69;5042035;28;20057;-70
2023/10/23 06:16:07;;;;;;;0.10;0.10;;;;;;;4.46;99.08;98565.38;5043217;28;20095;-65
2023/10/23 06:18:35;;;;;;;0.10;0.10;;;;;;;4.45;98.88;98551.03;5040960;28;20076;-65
2023/10/23 06:21:04;;;;;;;0.22;0.17;;;;;;;4.47;98.93;98545.34;5046405;28;20432;-70
2023/10/23 06:23:32;;;;;;;0.20;0.20;;;;;;;4.48;99.09;98541.56;5041363;28;20045;-65
2023/10/23 06:25:59;;;;;;;0.40;0.38;;;;;;;4.49;98.91;98544.00;5042580;28;20063;-70
2023/10/23 06:28:25;;;;;;;0.10;0.10;;;;;;;4.49;99.20;98535.06;5043112;28;20531;-65
2023/10/23 06:30:51;;;;;;;0.10;0.10;;;;;;;4.47;98.82;98535.34;5044928;28;20048;-65
2023/10/23 06:33:19;;;;;;;0.20;0.20;;;;;;;4.49;98.83;98538.59;5044547;28;20044;-64
2023/10/23 06:35:45;;;;;;;0.10;0.10;;;;;;;4.49;98.87;98543.19;5040836;28;20041;-65
2023/10/23 06:38:11;;;;;;;0.08;0.08;;;;;;;4.43;98.27;98533.44;5040550;28;20157;-64
2023/10/23 06:40:38;;;;;;;0.10;0.10;;;;;;;4.36;98.35;98537.16;5046355;28;20052;-65
2023/10/23 06:43:04;;;;;;;0.10;0.10;;;;;;;4.40;98.87;98521.22;5042038;28;20432;-65
2023/10/23 06:45:30;;;;;;;0.10;0.10;;;;;;;4.46;99.24;98524.75;5042671;28;20036;-70
2023/10/23 06:47:56;;;;;;;0.10;0.10;;;;;;;4.56;99.14;98522.09;5032472;28;20132;-70
2023/10/23 06:50:23;;;;;;;0.17;0.17;;;;;;;4.62;98.70;98521.03;5043241;28;20131;-70
2023/10/23 06:52:50;;;;;;;0.10;0.10;;;;;;;4.59;98.79;98521.56;5027266;28;20044;-70
2023/10/23 06:55:17;;;;;;;0.10;0.10;;;;;;;4.61;98.75;98521.31;5044083;28;20144;-70
2023/10/23 06:57:45;;;;;;;0.10;0.10;;;;;;;4.62;98.67;98509.41;5043986;28;21131;-70
2023/10/23 07:00:12;;;;;;;0.10;0.10;;;;;;;4.69;98.63;98520.78;5043648;28;20103;-70
2023/10/23 07:02:38;;;;;;;0.10;0.10;;;;;;;4.72;98.48;98522.13;5027212;28;20037;-70
2023/10/23 07:05:05;;;;;;;0.10;0.10;;;;;;;4.75;97.92;98525.09;5043634;28;20063;-70
2023/10/23 07:07:32;;;;;;;0.10;0.10;;;;;;;4.76;97.83;98512.38;5044485;28;20049;-69
2023/10/23 07:09:59;;;;;;;0.10;0.10;;;;;;;4.77;97.49;98514.84;5038840;28;20526;-71
2023/10/23 07:12:25;;;;;;;0.10;0.10;;;;;;;4.77;97.16;98504.00;5033033;28;20142;-70
2023/10/23 07:14:51;;;;;;;0.10;0.10;;;;;;;4.76;96.88;98520.53;5031209;28;20033;-71
2023/10/23 07:17:17;;;;;;;0.10;0.10;;;;;;;4.74;96.83;98511.84;5038892;28;20051;-71
2023/10/23 07:19:44;;;;;;;0.10;0.10;;;;;;;4.77;97.19;98511.31;5041868;28;20133;-71
2023/10/23 07:22:10;;;;;;;0.10;0.10;;;;;;;4.81;97.09;98510.50;5044705;28;20044;-71
2023/10/23 07:24:38;;;;;;;0.10;0.10;;;;;;;4.83;97.04;98513.75;5042262;28;20059;-67
2023/10/23 07:27:04;;;;;;;;;;;;;;;4.83;96.78;98510.22;5025317;28;20096;-65
2023/10/23 07:29:30;;;;;;;0.10;0.10;;;;;;;4.85;96.48;98509.97;5033845;28;20387;-65
2023/10/23 07:31:56;;;;;;;0.10;0.10;;;;;;;4.83;96.20;98497.50;5042189;28;20139;-65
2023/10/23 07:34:22;;;;;;;0.10;0.10;;;;;;;4.82;96.08;98486.94;5041196;28;20052;-66
2023/10/23 07:36:48;;;;;;;0.10;0.10;;;;;;;4.86;96.41;98496.16;5033509;28;20045;-65
2023/10/23 07:39:14;;;;;;;0.10;0.10;;;;;;;4.96;96.67;98485.31;5041511;28;20044;-66
2023/10/23 07:41:45;;;;;;;0.10;0.10;;;;;;;5.06;96.69;98481.81;5040654;28;20049;-66
2023/10/23 07:44:13;;;;;;;0.10;0.10;;;;;;;5.11;96.62;98481.00;5027492;28;20083;-65
2023/10/23 07:46:43;;;;;;;0.10;0.10;;;;;;;5.19;96.77;98485.06;5033854;28;20144;-65
2023/10/23 07:49:09;;;;;;;0.10;0.10;;;;;;;5.22;96.18;98485.34;5042095;28;20048;-70
2023/10/23 07:51:35;;;;;;;0.10;0.10;;;;;;;5.20;95.71;98487.50;5044915;28;20049;-70
2023/10/23 07:54:03;;;;;;;0.10;0.10;;;;;;;5.17;95.66;98488.06;5046062;28;20045;-70
2023/10/23 07:56:29;;;;;;;0.10;0.10;;;;;;;5.17;95.57;98481.81;5046395;28;20048;-70
2023/10/23 07:58:56;;;;;;;0.10;0.10;;;;;;;5.18;95.60;98481.56;5046903;28;20049;-70
2023/10/23 08:01:22;;;;;;;;;;;;;;;5.23;95.36;98484.25;5045707;28;20045;-65
2023/10/23 08:03:48;;;;;;;0.10;0.10;;;;;;;5.25;95.09;98465.03;5044656;28;19925;-65
2023/10/23 08:06:15;;;;;;;0.10;0.10;;;;;;;5.27;94.91;98457.44;5047520;28;20048;-65
2023/10/23 08:08:43;;;;;;;0.10;0.10;;;;;;;5.33;94.65;98459.03;5033525;28;20256;-65
2023/10/23 08:11:12;;;;;;;0.10;0.10;;;;;;;5.39;94.95;98463.38;5049531;28;20132;-70
2023/10/23 08:13:39;;;;;;;0.05;0.05;;;;;;;5.46;94.83;98465.78;5035198;28;20045;-70
2023/10/23 08:16:07;;;;;;;0.15;0.10;;;;;;;5.48;94.69;98460.09;5043350;28;20048;-71
2023/10/23 08:18:36;;;;;;;0.10;0.10;;;;;;;5.51;94.48;98454.13;5046768;28;20083;-70
2023/10/23 08:21:08;;;;;;;0.10;0.10;;;;;;;5.52;94.52;98451.16;5036986;28;20076;-70
2023/10/23 08:23:35;;;;;;;0.10;0.10;;;;;;;5.70;94.67;98454.34;5027682;28;20044;-70
2023/10/23 08:26:01;;;;;;;0.10;0.10;;;;;;;5.77;94.35;98451.38;5047572;28;20416;-70
2023/10/23 08:28:27;;;;;;;0.10;0.10;;;;;;;5.84;93.73;98451.06;5038454;28;20428;-65
2023/10/23 08:30:53;;;;;;;0.10;0.10;;;;;;;5.81;93.47;98450.53;5044986;28;20084;-65
2023/10/23 08:33:21;;;;;;;0.10;0.10;;;;;;;5.78;93.63;98453.81;5042465;28;20049;-65
2023/10/23 08:35:47;;;;;;;0.10;0.10;;;;;;;5.76;93.52;98447.03;5028343;28;20052;-65
2023/10/23 08:38:13;;;;;;;0.10;0.10;;;;;;;5.70;93.70;98438.09;5027329;28;20045;-65
2023/10/23 08:40:40;;;;;;;0.10;0.10;;;;;;;5.69;93.61;98441.88;5045042;28;20139;-65
2023/10/23 08:43:06;;;;;;;0.10;0.10;;;;;;;5.70;93.56;98429.94;5046368;28;20494;-65
2023/10/23 08:45:33;;;;;;;0.10;0.10;;;;;;;5.63;93.49;98424.81;5046995;28;20075;-65
2023/10/23 08:47:59;;;;;;;0.10;0.10;;;;;;;5.61;93.55;98427.00;5044959;28;20052;-64
2023/10/23 08:50:27;;;;;;;0.10;0.10;;;;;;;5.59;93.76;98414.78;5046784;28;20041;-71
2023/10/23 08:52:59;;;;;;;0.10;0.10;;;;;;;5.57;93.73;98412.38;5045302;28;20075;-70
2023/10/23 08:55:28;;;;;;;0.08;0.08;;;;;;;5.63;93.77;98405.84;5029604;28;20071;-70
2023/10/23 08:57:57;;;;;;;0.10;0.10;;;;;;;5.70;93.88;98402.84;5045224;28;20194;-71
2023/10/23 09:00:24;;;;;;;0.10;0.10;;;;;;;5.81;94.05;98401.72;5040783;28;20083;-70
2023/10/23 09:02:51;;;;;;;0.10;0.10;;;;;;;5.89;93.63;98392.19;5030148;28;20049;-65
2023/10/23 09:05:17;;;;;;;0.10;0.10;;;;;;;5.94;93.39;98394.88;5024552;28;20045;-65
2023/10/23 09:07:45;;;;;;;0.10;0.10;;;;;;;5.96;93.08;98389.16;5034715;28;20099;-65
2023/10/23 09:10:12;;;;;;;0.10;0.10;;;;;;;5.87;92.97;98375.38;5041210;28;20200;-66
2023/10/23 09:12:39;;;;;;;0.10;0.10;;;;;;;5.98;93.23;98370.72;5046993;28;20131;-65
2023/10/23 09:15:15;;;;;;;0.10;0.10;;;;;;;5.93;92.89;98368.00;5043303;28;20044;-65
2023/10/23 09:17:42;;;;;;;0.10;0.10;;;;;;;5.95;92.99;98365.84;5040158;28;20061;-66
2023/10/23 09:20:23;;;;;;;0.10;0.10;;;;;;;5.93;93.46;98362.56;5044866;28;20053;-65
2023/10/23 09:22:52;;;;;;;0.10;0.10;;;;;;;5.90;93.55;98361.25;5046329;28;20143;-65
2023/10/23 09:25:19;;;;;;;0.10;0.10;;;;;;;5.89;93.61;98365.06;5036976;28;20133;-70
2023/10/23 09:27:45;;;;;;;0.10;0.10;;;;;;;5.92;93.74;98353.63;5037844;28;20453;-65
2023/10/23 09:30:21;;;;;;;0.10;0.10;;;;;;;5.98;93.67;98354.44;5040903;28;20049;-65
2023/10/23 09:32:51;;;;;;;0.10;0.10;;;;;;;6.01;93.14;98351.19;5045296;28;20044;-65
2023/10/23 09:35:18;;;;;;;0.10;0.10;;;;;;;5.97;93.36;98342.75;5046084;28;20056;-65
2023/10/23 09:37:44;;;;;;;0.10;0.10;;;;;;;6.03;93.60;98348.19;5045642;28;20579;-65
2023/10/23 09:40:13;;;;;;;0.10;0.10;;;;;;;6.08;93.43;98340.00;5046334;28;20052;-65
2023/10/23 09:42:40;;;;;;;0.10;0.10;;;;;;;6.12;93.52;98340.28;5044311;28;20426;-70
2023/10/23 09:45:08;;;;;;;0.10;0.10;;;;;;;6.15;93.64;98334.28;5035030;28;20053;-71
2023/10/23 09:47:38;;;;;;;0.10;0.10;;;;;;;6.16;93.52;98336.69;5044675;28;20064;-71
2023/10/23 09:50:05;;;;;;;0.10;0.10;;;;;;;6.12;93.64;98334.84;5043030;28;20107;-67
2023/10/23 09:52:33;;;;;;;0.10;0.10;;;;;;;6.08;93.77;98331.88;5043240;28;20148;-65
2023/10/23 09:55:01;;;;;;;0.10;0.10;;;;;;;6.12;94.10;98337.56;5043449;28;20055;-66
2023/10/23 09:57:35;;;;;;;0.10;0.10;;;;;;;6.09;94.20;98328.91;5043314;28;20053;-70
2023/10/23 10:00:07;;;;;;;0.05;0.05;;;;;;;6.04;94.09;98325.41;5043704;28;20524;-71
2023/10/23 10:02:39;;;;;;;0.10;0.10;;;;;;;5.98;94.39;98327.28;5042372;28;20040;-71
2023/10/23 10:05:05;;;;;;;;;;;;;;;6.04;94.37;98328.13;5046076;28;20064;-71
2023/10/23 10:07:41;;;;;;;0.10;0.10;;;;;;;6.04;93.97;98323.47;5045378;28;19928;-71
2023/10/23 10:10:09;;;;;;;0.10;0.10;;;;;;;6.03;93.64;98324.56;5044646;28;20057;-71
2023/10/23 10:12:38;;;;;;;0.10;0.10;;;;;;;5.95;93.54;98308.88;4999275;28;20076;-69
2023/10/23 10:15:09;;;;;;;0.10;0.10;;;;;;;5.99;93.75;98318.06;5025912;28;20513;-70
2023/10/23 10:17:37;;;;;;;0.10;0.10;;;;;;;6.01;93.96;98310.47;5042970;28;20143;-71
2023/10/23 10:20:05;;;;;;;0.10;0.10;;;;;;;5.99;94.20;98314.53;5043627;28;20071;-70
2023/10/23 10:22:34;;;;;;;0.10;0.10;;;;;;;5.90;94.54;98298.03;5042602;28;20416;-65
2023/10/23 10:25:04;;;;;;;0.10;0.10;;;;;;;5.92;94.76;98310.22;5036070;28;20160;-65
2023/10/23 10:27:30;;;;;;;0.10;0.10;;;;;;;5.98;94.77;98305.59;5035598;28;20080;-65
2023/10/23 10:30:02;;;;;;;0.10;0.10;;;;;;;6.01;94.73;98302.34;5036639;28;20044;-65
2023/10/23 10:32:31;;;;;;;0.10;0.10;;;;;;;6.01;94.53;98302.34;5040252;28;20115;-70
2023/10/23 10:35:01;;;;;;;0.10;0.10;;;;;;;6.03;94.41;98304.78;5021160;28;20427;-66
2023/10/23 10:37:31;;;;;;;0.10;0.10;;;;;;;6.01;94.27;98299.63;5039509;28;20136;-65
2023/10/23 10:40:04;;;;;;;;;;;;;;;5.98;94.32;98294.75;5042371;28;20784;-66
2023/10/23 10:42:34;;;;;;;0.10;0.10;;;;;;;5.94;94.02;98294.47;5042108;28;20002;-65
2023/10/23 10:45:10;;;;;;;0.10;0.10;;;;;;;5.91;93.83;98281.47;5043376;28;20538;-65
2023/10/23 10:47:38;;;;;;;0.10;0.10;;;;;;;5.92;94.11;98287.69;5039389;28;20075;-66
2023/10/23 10:50:05;;;;;;;0.10;0.10;;;;;;;5.90;94.56;98277.16;5042778;28;20049;-66
2023/10/23 10:52:34;;;;;;;0.10;0.10;;;;;;;5.92;94.66;98274.97;5042240;28;20083;-65
2023/10/23 10:55:00;;;;;;;0.00;0.00;;;;;;;6.03;95.12;98270.31;5040818;28;20072;-65
2023/10/23 10:57:27;;;;;;;0.10;0.10;;;;;;;6.04;95.09;98265.69;5036418;28;20080;-65
2023/10/23 10:59:55;;;;;;;0.10;0.10;;;;;;;6.09;95.41;98262.94;5045165;28;20080;-66
2023/10/23 11:02:23;;;;;;;0.00;0.00;;;;;;;6.16;95.12;98263.41;5027430;28;20107;-66
2023/10/23 11:04:49;;;;;;;0.10;0.10;;;;;;;6.19;94.87;98252.00;5025079;28;20148;-71
2023/10/23 11:07:22;;;;;;;0.10;0.10;;;;;;;6.05;94.55;98238.25;5023010;28;20065;-71
2023/10/23 11:09:49;;;;;;;0.10;0.10;;;;;;;6.11;94.64;98247.19;5015536;28;20049;-70
2023/10/23 11:12:18;;;;;;;0.00;0.00;;;;;;;6.11;94.52;98249.91;5042642;28;20435;-66
2023/10/23 11:14:44;;;;;;;0.10;0.10;;;;;;;6.10;94.34;98257.25;5037747;28;20511;-66
2023/10/23 11:17:11;;;;;;;0.00;0.00;;;;;;;6.08;94.74;98251.25;5029799;28;20184;-66
2023/10/23 11:19:39;;;;;;;0.10;0.10;;;;;;;6.08;94.96;98250.47;5032093;28;20045;-65
2023/10/23 11:22:09;;;;;;;0.20;0.10;;;;;;;6.11;95.31;98244.47;5031867;28;20060;-66
2023/10/23 11:24:35;;;;;;;0.00;0.00;;;;;;;6.10;95.59;98240.13;5033927;28;20057;-70
2023/10/23 11:27:04;;;;;;;0.00;0.00;;;;;;;6.17;95.63;98232.50;5050565;28;20136;-70
2023/10/23 11:29:37;;;;;;;0.00;0.00;;;;;;;6.17;95.04;98232.50;5020277;28;20049;-71
2023/10/23 11:32:04;;;;;;;0.10;0.10;;;;;;;6.14;95.34;98234.97;5029572;28;20049;-71
2023/10/23 11:34:31;;;;;;;0.10;0.10;;;;;;;6.12;95.46;98226.28;5033200;28;20048;-65
2023/10/23 11:37:00;;;;;;;0.10;0.10;;;;;;;6.08;95.32;98226.03;5034216;28;20076;-72
2023/10/23 11:39:28;;;;;;;0.10;0.10;;;;;;;6.11;95.23;98220.03;5044734;28;20048;-71
2023/10/23 11:41:54;;;;;;;;;;;;;;;6.13;95.26;98227.91;5042378;28;20183;-71